sensor_id;sensor_type;location;lat;lon;timestamp;pressure;altitude;pressure_sealevel;temperature
74485;BMP280;62942;52.462;10.846;2023-03-17T00:00:30;100550;;;
74485;BMP280;62942;52.462;10.846;2023-03-17T00:01:39;100540;;;
74485;BMP280;62942;52.462;10.846;2023-03-17T00:02:40;100540;;;
74485;BMP280;62942;52.462;10.846;2023-03-17T00:03:49;100540;;;
74485;BMP280;62942;52.462;10.846;2023-03-17T00:04:50;100540;;;
74485;BMP280;62942;52.462;10.846;2023-03-17T00:06:00;100540;;;
74485;BMP280;62942;52.462;10.846;2023-03-17T00:07:10;100550;;;
74485;BMP280;62942;52.462;10.846;2023-03-17T00:08:20;100540;;;
74485;BMP280;62942;52.462;10.846;2023-03-17T00:09:29;100540;;;
74485;BMP280;62942;52.462;10.846;2023-03-17T00:10:40;100540;;;
74485;BMP280;62942;52.462;10.846;2023-03-17T00:11:40;100540;;;
74485;BMP280;62942;52.462;10.846;2023-03-17T00:12:40;100540;;;
74485;BMP280;62942;52.462;10.846;2023-03-17T00:13:49;100530;;;
74485;BMP280;62942;52.462;10.846;2023-03-17T00:14:49;100530;;;
74485;BMP280;62942;52.462;10.846;2023-03-17T00:16:01;100530;;;
74485;BMP280;62942;52.462;10.846;2023-03-17T00:17:10;100520;;;
74485;BMP280;62942;52.462;10.846;2023-03-17T00:18:20;100530;;;
74485;BMP280;62942;52.462;10.846;2023-03-17T00:19:30;100530;;;
74485;BMP280;62942;52.462;10.846;2023-03-17T00:20:40;100520;;;
74485;BMP280;62942;52.462;10.846;2023-03-17T00:21:49;100530;;;
74485;BMP280;62942;52.462;10.846;2023-03-17T00:22:50;100520;;;
74485;BMP280;62942;52.462;10.846;2023-03-17T00:23:50;100530;;;
74485;BMP280;62942;52.462;10.846;2023-03-17T00:24:59;100530;;;
74485;BMP280;62942;52.462;10.846;2023-03-17T00:26:09;100530;;;
74485;BMP280;62942;52.462;10.846;2023-03-17T00:27:19;100520;;;
74485;BMP280;62942;52.462;10.846;2023-03-17T00:28:20;100520;;;
74485;BMP280;62942;52.462;10.846;2023-03-17T00:29:29;100520;;;
74485;BMP280;62942;52.462;10.846;2023-03-17T00:30:39;100520;;;
74485;BMP280;62942;52.462;10.846;2023-03-17T00:31:49;100510;;;
74485;BMP280;62942;52.462;10.846;2023-03-17T00:32:50;100510;;;
74485;BMP280;62942;52.462;10.846;2023-03-17T00:33:59;100520;;;
74485;BMP280;62942;52.462;10.846;2023-03-17T00:35:14;100510;;;
74485;BMP280;62942;52.462;10.846;2023-03-17T00:36:10;100510;;;
74485;BMP280;62942;52.462;10.846;2023-03-17T00:37:19;100510;;;
74485;BMP280;62942;52.462;10.846;2023-03-17T00:38:20;100510;;;
74485;BMP280;62942;52.462;10.846;2023-03-17T00:39:19;100510;;;
74485;BMP280;62942;52.462;10.846;2023-03-17T00:40:29;100510;;;
74485;BMP280;62942;52.462;10.846;2023-03-17T00:41:39;100510;;;
74485;BMP280;62942;52.462;10.846;2023-03-17T00:42:39;100510;;;
74485;BMP280;62942;52.462;10.846;2023-03-17T00:43:49;100520;;;
74485;BMP280;62942;52.462;10.846;2023-03-17T00:44:59;100510;;;
74485;BMP280;62942;52.462;10.846;2023-03-17T00:45:59;100510;;;
74485;BMP280;62942;52.462;10.846;2023-03-17T00:47:09;100510;;;
74485;BMP280;62942;52.462;10.846;2023-03-17T00:48:20;100500;;;
74485;BMP280;62942;52.462;10.846;2023-03-17T00:49:29;100500;;;
74485;BMP280;62942;52.462;10.846;2023-03-17T00:50:29;100490;;;
74485;BMP280;62942;52.462;10.846;2023-03-17T00:51:39;100500;;;
74485;BMP280;62942;52.462;10.846;2023-03-17T00:52:40;100500;;;
74485;BMP280;62942;52.462;10.846;2023-03-17T00:53:49;100500;;;
74485;BMP280;62942;52.462;10.846;2023-03-17T00:54:49;100500;;;
74485;BMP280;62942;52.462;10.846;2023-03-17T00:55:49;100500;;;
74485;BMP280;62942;52.462;10.846;2023-03-17T00:56:59;100500;;;
74485;BMP280;62942;52.462;10.846;2023-03-17T00:57:59;100490;;;
74485;BMP280;62942;52.462;10.846;2023-03-17T00:59:12;100500;;;
74485;BMP280;62942;52.462;10.846;2023-03-17T01:00:21;100490;;;
74485;BMP280;62942;52.462;10.846;2023-03-17T01:01:29;100490;;;
74485;BMP280;62942;52.462;10.846;2023-03-17T01:02:29;100490;;;
74485;BMP280;62942;52.462;10.846;2023-03-17T01:03:39;100490;;;
74485;BMP280;62942;52.462;10.846;2023-03-17T01:04:39;100490;;;
74485;BMP280;62942;52.462;10.846;2023-03-17T01:05:39;100480;;;
74485;BMP280;62942;52.462;10.846;2023-03-17T01:06:49;100470;;;
74485;BMP280;62942;52.462;10.846;2023-03-17T01:07:50;100470;;;
74485;BMP280;62942;52.462;10.846;2023-03-17T01:08:49;100470;;;
74485;BMP280;62942;52.462;10.846;2023-03-17T01:09:59;100470;;;
74485;BMP280;62942;52.462;10.846;2023-03-17T01:11:12;100470;;;
74485;BMP280;62942;52.462;10.846;2023-03-17T01:12:10;100470;;;
74485;BMP280;62942;52.462;10.846;2023-03-17T01:13:10;100470;;;
74485;BMP280;62942;52.462;10.846;2023-03-17T01:14:19;100470;;;
74485;BMP280;62942;52.462;10.846;2023-03-17T01:15:30;100470;;;
74485;BMP280;62942;52.462;10.846;2023-03-17T01:16:29;100470;;;
74485;BMP280;62942;52.462;10.846;2023-03-17T01:17:29;100480;;;
74485;BMP280;62942;52.462;10.846;2023-03-17T01:18:40;100480;;;
74485;BMP280;62942;52.462;10.846;2023-03-17T01:19:49;100480;;;
74485;BMP280;62942;52.462;10.846;2023-03-17T01:20:49;100480;;;
74485;BMP280;62942;52.462;10.846;2023-03-17T01:21:50;100490;;;
74485;BMP280;62942;52.462;10.846;2023-03-17T01:23:00;100480;;;
74485;BMP280;62942;52.462;10.846;2023-03-17T01:24:09;100490;;;
74485;BMP280;62942;52.462;10.846;2023-03-17T01:25:19;100490;;;
74485;BMP280;62942;52.462;10.846;2023-03-17T01:26:29;100480;;;
74485;BMP280;62942;52.462;10.846;2023-03-17T01:27:32;100480;;;
74485;BMP280;62942;52.462;10.846;2023-03-17T01:28:29;100480;;;
74485;BMP280;62942;52.462;10.846;2023-03-17T01:29:39;100470;;;
74485;BMP280;62942;52.462;10.846;2023-03-17T01:30:49;100470;;;
74485;BMP280;62942;52.462;10.846;2023-03-17T01:31:59;100460;;;
74485;BMP280;62942;52.462;10.846;2023-03-17T01:33:10;100460;;;
74485;BMP280;62942;52.462;10.846;2023-03-17T01:34:19;100450;;;
74485;BMP280;62942;52.462;10.846;2023-03-17T01:35:29;100460;;;
74485;BMP280;62942;52.462;10.846;2023-03-17T01:36:39;100460;;;
74485;BMP280;62942;52.462;10.846;2023-03-17T01:37:39;100460;;;
74485;BMP280;62942;52.462;10.846;2023-03-17T01:38:39;100460;;;
74485;BMP280;62942;52.462;10.846;2023-03-17T01:39:39;100450;;;
74485;BMP280;62942;52.462;10.846;2023-03-17T01:40:50;100450;;;
74485;BMP280;62942;52.462;10.846;2023-03-17T01:41:59;100450;;;
74485;BMP280;62942;52.462;10.846;2023-03-17T01:43:19;100450;;;
74485;BMP280;62942;52.462;10.846;2023-03-17T01:44:19;100440;;;
74485;BMP280;62942;52.462;10.846;2023-03-17T01:46:35;100450;;;
74485;BMP280;62942;52.462;10.846;2023-03-17T01:46:39;100440;;;
74485;BMP280;62942;52.462;10.846;2023-03-17T01:47:49;100440;;;
74485;BMP280;62942;52.462;10.846;2023-03-17T01:49:02;100450;;;
74485;BMP280;62942;52.462;10.846;2023-03-17T01:50:02;100450;;;
74485;BMP280;62942;52.462;10.846;2023-03-17T01:51:10;100440;;;
74485;BMP280;62942;52.462;10.846;2023-03-17T01:52:20;100440;;;
74485;BMP280;62942;52.462;10.846;2023-03-17T01:53:29;100440;;;
74485;BMP280;62942;52.462;10.846;2023-03-17T01:54:32;100440;;;
74485;BMP280;62942;52.462;10.846;2023-03-17T01:55:39;100440;;;
74485;BMP280;62942;52.462;10.846;2023-03-17T01:56:49;100450;;;
74485;BMP280;62942;52.462;10.846;2023-03-17T01:57:59;100450;;;
74485;BMP280;62942;52.462;10.846;2023-03-17T01:59:00;100440;;;
74485;BMP280;62942;52.462;10.846;2023-03-17T02:00:00;100440;;;
74485;BMP280;62942;52.462;10.846;2023-03-17T02:01:09;100440;;;
74485;BMP280;62942;52.462;10.846;2023-03-17T02:02:10;100440;;;
74485;BMP280;62942;52.462;10.846;2023-03-17T02:03:19;100430;;;
74485;BMP280;62942;52.462;10.846;2023-03-17T02:04:29;100430;;;
74485;BMP280;62942;52.462;10.846;2023-03-17T02:05:39;100430;;;
74485;BMP280;62942;52.462;10.846;2023-03-17T02:06:39;100440;;;
74485;BMP280;62942;52.462;10.846;2023-03-17T02:07:39;100440;;;
74485;BMP280;62942;52.462;10.846;2023-03-17T02:08:49;100440;;;
74485;BMP280;62942;52.462;10.846;2023-03-17T02:09:49;100440;;;
74485;BMP280;62942;52.462;10.846;2023-03-17T02:10:59;100450;;;
74485;BMP280;62942;52.462;10.846;2023-03-17T02:12:09;100450;;;
74485;BMP280;62942;52.462;10.846;2023-03-17T02:13:19;100440;;;
74485;BMP280;62942;52.462;10.846;2023-03-17T02:14:29;100450;;;
74485;BMP280;62942;52.462;10.846;2023-03-17T02:15:37;100450;;;
74485;BMP280;62942;52.462;10.846;2023-03-17T02:16:39;100450;;;
74485;BMP280;62942;52.462;10.846;2023-03-17T02:17:49;100460;;;
74485;BMP280;62942;52.462;10.846;2023-03-17T02:18:59;100450;;;
74485;BMP280;62942;52.462;10.846;2023-03-17T02:20:11;100450;;;
74485;BMP280;62942;52.462;10.846;2023-03-17T02:21:24;100450;;;
74485;BMP280;62942;52.462;10.846;2023-03-17T02:22:09;100460;;;
74485;BMP280;62942;52.462;10.846;2023-03-17T02:23:20;100460;;;
74485;BMP280;62942;52.462;10.846;2023-03-17T02:24:31;100450;;;
74485;BMP280;62942;52.462;10.846;2023-03-17T02:25:39;100450;;;
74485;BMP280;62942;52.462;10.846;2023-03-17T02:26:39;100450;;;
74485;BMP280;62942;52.462;10.846;2023-03-17T02:27:40;100450;;;
74485;BMP280;62942;52.462;10.846;2023-03-17T02:28:49;100450;;;
74485;BMP280;62942;52.462;10.846;2023-03-17T02:29:59;100450;;;
74485;BMP280;62942;52.462;10.846;2023-03-17T02:31:09;100440;;;
74485;BMP280;62942;52.462;10.846;2023-03-17T02:32:09;100440;;;
74485;BMP280;62942;52.462;10.846;2023-03-17T02:33:19;100440;;;
74485;BMP280;62942;52.462;10.846;2023-03-17T02:34:19;100440;;;
74485;BMP280;62942;52.462;10.846;2023-03-17T02:35:19;100440;;;
74485;BMP280;62942;52.462;10.846;2023-03-17T02:36:29;100440;;;
74485;BMP280;62942;52.462;10.846;2023-03-17T02:37:29;100450;;;
74485;BMP280;62942;52.462;10.846;2023-03-17T02:38:39;100450;;;
74485;BMP280;62942;52.462;10.846;2023-03-17T02:39:49;100450;;;
74485;BMP280;62942;52.462;10.846;2023-03-17T02:40:59;100440;;;
74485;BMP280;62942;52.462;10.846;2023-03-17T02:42:09;100440;;;
74485;BMP280;62942;52.462;10.846;2023-03-17T02:43:09;100440;;;
74485;BMP280;62942;52.462;10.846;2023-03-17T02:44:19;100430;;;
74485;BMP280;62942;52.462;10.846;2023-03-17T02:45:29;100430;;;
74485;BMP280;62942;52.462;10.846;2023-03-17T02:46:29;100430;;;
74485;BMP280;62942;52.462;10.846;2023-03-17T02:47:29;100430;;;
74485;BMP280;62942;52.462;10.846;2023-03-17T02:48:29;100430;;;
74485;BMP280;62942;52.462;10.846;2023-03-17T02:49:39;100430;;;
74485;BMP280;62942;52.462;10.846;2023-03-17T02:50:49;100420;;;
74485;BMP280;62942;52.462;10.846;2023-03-17T02:51:59;100420;;;
74485;BMP280;62942;52.462;10.846;2023-03-17T02:53:09;100430;;;
74485;BMP280;62942;52.462;10.846;2023-03-17T02:54:19;100440;;;
74485;BMP280;62942;52.462;10.846;2023-03-17T02:55:19;100440;;;
74485;BMP280;62942;52.462;10.846;2023-03-17T02:56:29;100430;;;
74485;BMP280;62942;52.462;10.846;2023-03-17T02:57:39;100420;;;
74485;BMP280;62942;52.462;10.846;2023-03-17T02:58:39;100420;;;
74485;BMP280;62942;52.462;10.846;2023-03-17T02:59:50;100420;;;
74485;BMP280;62942;52.462;10.846;2023-03-17T03:00:59;100420;;;
74485;BMP280;62942;52.462;10.846;2023-03-17T03:02:09;100420;;;
74485;BMP280;62942;52.462;10.846;2023-03-17T03:03:19;100410;;;
74485;BMP280;62942;52.462;10.846;2023-03-17T03:04:29;100410;;;
74485;BMP280;62942;52.462;10.846;2023-03-17T03:05:39;100410;;;
74485;BMP280;62942;52.462;10.846;2023-03-17T03:06:39;100410;;;
74485;BMP280;62942;52.462;10.846;2023-03-17T03:07:49;100410;;;
74485;BMP280;62942;52.462;10.846;2023-03-17T03:08:59;100420;;;
74485;BMP280;62942;52.462;10.846;2023-03-17T03:10:09;100410;;;
74485;BMP280;62942;52.462;10.846;2023-03-17T03:11:09;100410;;;
74485;BMP280;62942;52.462;10.846;2023-03-17T03:12:19;100400;;;
74485;BMP280;62942;52.462;10.846;2023-03-17T03:13:29;100410;;;
74485;BMP280;62942;52.462;10.846;2023-03-17T03:14:29;100410;;;
74485;BMP280;62942;52.462;10.846;2023-03-17T03:15:40;100410;;;
74485;BMP280;62942;52.462;10.846;2023-03-17T03:16:39;100410;;;
74485;BMP280;62942;52.462;10.846;2023-03-17T03:17:49;100410;;;
74485;BMP280;62942;52.462;10.846;2023-03-17T03:18:49;100410;;;
74485;BMP280;62942;52.462;10.846;2023-03-17T03:19:49;100400;;;
74485;BMP280;62942;52.462;10.846;2023-03-17T03:20:59;100410;;;
74485;BMP280;62942;52.462;10.846;2023-03-17T03:22:09;100420;;;
74485;BMP280;62942;52.462;10.846;2023-03-17T03:23:19;100420;;;
74485;BMP280;62942;52.462;10.846;2023-03-17T03:24:19;100410;;;
74485;BMP280;62942;52.462;10.846;2023-03-17T03:25:29;100420;;;
74485;BMP280;62942;52.462;10.846;2023-03-17T03:26:39;100420;;;
74485;BMP280;62942;52.462;10.846;2023-03-17T03:27:49;100420;;;
74485;BMP280;62942;52.462;10.846;2023-03-17T03:28:59;100420;;;
74485;BMP280;62942;52.462;10.846;2023-03-17T03:30:09;100430;;;
74485;BMP280;62942;52.462;10.846;2023-03-17T03:31:09;100430;;;
74485;BMP280;62942;52.462;10.846;2023-03-17T03:32:19;100430;;;
74485;BMP280;62942;52.462;10.846;2023-03-17T03:33:29;100440;;;
74485;BMP280;62942;52.462;10.846;2023-03-17T03:34:39;100420;;;
74485;BMP280;62942;52.462;10.846;2023-03-17T03:35:49;100430;;;
74485;BMP280;62942;52.462;10.846;2023-03-17T03:36:49;100430;;;
74485;BMP280;62942;52.462;10.846;2023-03-17T03:37:59;100440;;;
74485;BMP280;62942;52.462;10.846;2023-03-17T03:38:59;100440;;;
74485;BMP280;62942;52.462;10.846;2023-03-17T03:40:09;100440;;;
74485;BMP280;62942;52.462;10.846;2023-03-17T03:41:09;100450;;;
74485;BMP280;62942;52.462;10.846;2023-03-17T03:42:09;100440;;;
74485;BMP280;62942;52.462;10.846;2023-03-17T03:43:19;100440;;;
74485;BMP280;62942;52.462;10.846;2023-03-17T03:44:19;100440;;;
74485;BMP280;62942;52.462;10.846;2023-03-17T03:45:29;100430;;;
74485;BMP280;62942;52.462;10.846;2023-03-17T03:46:39;100440;;;
74485;BMP280;62942;52.462;10.846;2023-03-17T03:47:49;100440;;;
74485;BMP280;62942;52.462;10.846;2023-03-17T03:48:49;100440;;;
74485;BMP280;62942;52.462;10.846;2023-03-17T03:49:59;100440;;;
74485;BMP280;62942;52.462;10.846;2023-03-17T03:51:00;100440;;;
74485;BMP280;62942;52.462;10.846;2023-03-17T03:51:59;100440;;;
74485;BMP280;62942;52.462;10.846;2023-03-17T03:52:59;100450;;;
74485;BMP280;62942;52.462;10.846;2023-03-17T03:54:09;100450;;;
74485;BMP280;62942;52.462;10.846;2023-03-17T03:55:19;100450;;;
74485;BMP280;62942;52.462;10.846;2023-03-17T03:56:19;100450;;;
74485;BMP280;62942;52.462;10.846;2023-03-17T03:57:29;100450;;;
74485;BMP280;62942;52.462;10.846;2023-03-17T03:58:39;100460;;;
74485;BMP280;62942;52.462;10.846;2023-03-17T03:59:49;100450;;;
74485;BMP280;62942;52.462;10.846;2023-03-17T04:01:02;100450;;;
74485;BMP280;62942;52.462;10.846;2023-03-17T04:02:09;100460;;;
74485;BMP280;62942;52.462;10.846;2023-03-17T04:03:19;100450;;;
74485;BMP280;62942;52.462;10.846;2023-03-17T04:04:29;100440;;;
74485;BMP280;62942;52.462;10.846;2023-03-17T04:05:29;100450;;;
74485;BMP280;62942;52.462;10.846;2023-03-17T04:06:39;100450;;;
74485;BMP280;62942;52.462;10.846;2023-03-17T04:07:49;100450;;;
74485;BMP280;62942;52.462;10.846;2023-03-17T04:08:59;100440;;;
74485;BMP280;62942;52.462;10.846;2023-03-17T04:10:09;100440;;;
74485;BMP280;62942;52.462;10.846;2023-03-17T04:11:19;100430;;;
74485;BMP280;62942;52.462;10.846;2023-03-17T04:12:19;100420;;;
74485;BMP280;62942;52.462;10.846;2023-03-17T04:13:19;100420;;;
74485;BMP280;62942;52.462;10.846;2023-03-17T04:14:29;100420;;;
74485;BMP280;62942;52.462;10.846;2023-03-17T04:15:39;100410;;;
74485;BMP280;62942;52.462;10.846;2023-03-17T04:16:39;100420;;;
74485;BMP280;62942;52.462;10.846;2023-03-17T04:17:49;100430;;;
74485;BMP280;62942;52.462;10.846;2023-03-17T04:18:59;100430;;;
74485;BMP280;62942;52.462;10.846;2023-03-17T04:19:59;100430;;;
74485;BMP280;62942;52.462;10.846;2023-03-17T04:21:09;100420;;;
74485;BMP280;62942;52.462;10.846;2023-03-17T04:22:19;100420;;;
74485;BMP280;62942;52.462;10.846;2023-03-17T04:23:19;100410;;;
74485;BMP280;62942;52.462;10.846;2023-03-17T04:24:29;100410;;;
74485;BMP280;62942;52.462;10.846;2023-03-17T04:25:39;100410;;;
74485;BMP280;62942;52.462;10.846;2023-03-17T04:26:49;100400;;;
74485;BMP280;62942;52.462;10.846;2023-03-17T04:27:59;100400;;;
74485;BMP280;62942;52.462;10.846;2023-03-17T04:28:59;100400;;;
74485;BMP280;62942;52.462;10.846;2023-03-17T04:30:09;100400;;;
74485;BMP280;62942;52.462;10.846;2023-03-17T04:31:09;100400;;;
74485;BMP280;62942;52.462;10.846;2023-03-17T04:32:19;100390;;;
74485;BMP280;62942;52.462;10.846;2023-03-17T04:33:29;100410;;;
74485;BMP280;62942;52.462;10.846;2023-03-17T04:34:39;100410;;;
74485;BMP280;62942;52.462;10.846;2023-03-17T04:35:39;100410;;;
74485;BMP280;62942;52.462;10.846;2023-03-17T04:36:49;100420;;;
74485;BMP280;62942;52.462;10.846;2023-03-17T04:37:49;100410;;;
74485;BMP280;62942;52.462;10.846;2023-03-17T04:38:59;100400;;;
74485;BMP280;62942;52.462;10.846;2023-03-17T04:39:59;100410;;;
74485;BMP280;62942;52.462;10.846;2023-03-17T04:41:09;100410;;;
74485;BMP280;62942;52.462;10.846;2023-03-17T04:42:19;100410;;;
74485;BMP280;62942;52.462;10.846;2023-03-17T04:43:19;100410;;;
74485;BMP280;62942;52.462;10.846;2023-03-17T04:44:29;100410;;;
74485;BMP280;62942;52.462;10.846;2023-03-17T04:45:39;100420;;;
74485;BMP280;62942;52.462;10.846;2023-03-17T04:46:49;100420;;;
74485;BMP280;62942;52.462;10.846;2023-03-17T04:47:59;100410;;;
74485;BMP280;62942;52.462;10.846;2023-03-17T04:48:59;100410;;;
74485;BMP280;62942;52.462;10.846;2023-03-17T04:50:09;100410;;;
74485;BMP280;62942;52.462;10.846;2023-03-17T04:51:19;100410;;;
74485;BMP280;62942;52.462;10.846;2023-03-17T04:52:19;100410;;;
74485;BMP280;62942;52.462;10.846;2023-03-17T04:53:29;100410;;;
74485;BMP280;62942;52.462;10.846;2023-03-17T04:54:39;100400;;;
74485;BMP280;62942;52.462;10.846;2023-03-17T04:55:39;100410;;;
74485;BMP280;62942;52.462;10.846;2023-03-17T04:56:49;100410;;;
74485;BMP280;62942;52.462;10.846;2023-03-17T04:57:59;100410;;;
74485;BMP280;62942;52.462;10.846;2023-03-17T04:59:09;100400;;;
74485;BMP280;62942;52.462;10.846;2023-03-17T05:00:19;100400;;;
74485;BMP280;62942;52.462;10.846;2023-03-17T05:01:29;100390;;;
74485;BMP280;62942;52.462;10.846;2023-03-17T05:02:39;100380;;;
74485;BMP280;62942;52.462;10.846;2023-03-17T05:03:49;100370;;;
74485;BMP280;62942;52.462;10.846;2023-03-17T05:04:59;100370;;;
74485;BMP280;62942;52.462;10.846;2023-03-17T05:06:09;100370;;;
74485;BMP280;62942;52.462;10.846;2023-03-17T05:07:19;100370;;;
74485;BMP280;62942;52.462;10.846;2023-03-17T05:08:29;100370;;;
74485;BMP280;62942;52.462;10.846;2023-03-17T05:09:39;100370;;;
74485;BMP280;62942;52.462;10.846;2023-03-17T05:10:49;100370;;;
74485;BMP280;62942;52.462;10.846;2023-03-17T05:11:59;100370;;;
74485;BMP280;62942;52.462;10.846;2023-03-17T05:13:09;100370;;;
74485;BMP280;62942;52.462;10.846;2023-03-17T05:14:09;100370;;;
74485;BMP280;62942;52.462;10.846;2023-03-17T05:15:19;100370;;;
74485;BMP280;62942;52.462;10.846;2023-03-17T05:16:19;100370;;;
74485;BMP280;62942;52.462;10.846;2023-03-17T05:17:19;100370;;;
74485;BMP280;62942;52.462;10.846;2023-03-17T05:18:20;100380;;;
74485;BMP280;62942;52.462;10.846;2023-03-17T05:19:29;100380;;;
74485;BMP280;62942;52.462;10.846;2023-03-17T05:20:39;100380;;;
74485;BMP280;62942;52.462;10.846;2023-03-17T05:21:49;100380;;;
74485;BMP280;62942;52.462;10.846;2023-03-17T05:22:59;100380;;;
74485;BMP280;62942;52.462;10.846;2023-03-17T05:24:09;100380;;;
74485;BMP280;62942;52.462;10.846;2023-03-17T05:25:19;100380;;;
74485;BMP280;62942;52.462;10.846;2023-03-17T05:26:29;100390;;;
74485;BMP280;62942;52.462;10.846;2023-03-17T05:27:39;100380;;;
74485;BMP280;62942;52.462;10.846;2023-03-17T05:28:39;100390;;;
74485;BMP280;62942;52.462;10.846;2023-03-17T05:29:49;100380;;;
74485;BMP280;62942;52.462;10.846;2023-03-17T05:30:59;100380;;;
74485;BMP280;62942;52.462;10.846;2023-03-17T05:32:09;100380;;;
74485;BMP280;62942;52.462;10.846;2023-03-17T05:33:19;100380;;;
74485;BMP280;62942;52.462;10.846;2023-03-17T05:34:29;100370;;;
74485;BMP280;62942;52.462;10.846;2023-03-17T05:35:39;100380;;;
74485;BMP280;62942;52.462;10.846;2023-03-17T05:36:49;100360;;;
74485;BMP280;62942;52.462;10.846;2023-03-17T05:37:59;100360;;;
74485;BMP280;62942;52.462;10.846;2023-03-17T05:39:09;100350;;;
74485;BMP280;62942;52.462;10.846;2023-03-17T05:40:19;100360;;;
74485;BMP280;62942;52.462;10.846;2023-03-17T05:41:29;100360;;;
74485;BMP280;62942;52.462;10.846;2023-03-17T05:42:29;100360;;;
74485;BMP280;62942;52.462;10.846;2023-03-17T05:43:39;100350;;;
74485;BMP280;62942;52.462;10.846;2023-03-17T05:44:49;100350;;;
74485;BMP280;62942;52.462;10.846;2023-03-17T05:45:59;100350;;;
74485;BMP280;62942;52.462;10.846;2023-03-17T05:46:59;100350;;;
74485;BMP280;62942;52.462;10.846;2023-03-17T05:48:09;100360;;;
74485;BMP280;62942;52.462;10.846;2023-03-17T05:49:19;100370;;;
74485;BMP280;62942;52.462;10.846;2023-03-17T05:50:29;100370;;;
74485;BMP280;62942;52.462;10.846;2023-03-17T05:51:29;100370;;;
74485;BMP280;62942;52.462;10.846;2023-03-17T05:52:39;100370;;;
74485;BMP280;62942;52.462;10.846;2023-03-17T05:53:49;100370;;;
74485;BMP280;62942;52.462;10.846;2023-03-17T05:54:59;100370;;;
74485;BMP280;62942;52.462;10.846;2023-03-17T05:56:09;100370;;;
74485;BMP280;62942;52.462;10.846;2023-03-17T05:57:09;100370;;;
74485;BMP280;62942;52.462;10.846;2023-03-17T05:58:19;100370;;;
74485;BMP280;62942;52.462;10.846;2023-03-17T05:59:19;100380;;;
74485;BMP280;62942;52.462;10.846;2023-03-17T06:00:30;100380;;;
74485;BMP280;62942;52.462;10.846;2023-03-17T06:01:39;100380;;;
74485;BMP280;62942;52.462;10.846;2023-03-17T06:02:49;100370;;;
74485;BMP280;62942;52.462;10.846;2023-03-17T06:03:59;100370;;;
74485;BMP280;62942;52.462;10.846;2023-03-17T06:05:09;100370;;;
74485;BMP280;62942;52.462;10.846;2023-03-17T06:06:19;100370;;;
74485;BMP280;62942;52.462;10.846;2023-03-17T06:07:19;100370;;;
74485;BMP280;62942;52.462;10.846;2023-03-17T06:08:29;100360;;;
74485;BMP280;62942;52.462;10.846;2023-03-17T06:09:39;100350;;;
74485;BMP280;62942;52.462;10.846;2023-03-17T06:10:39;100360;;;
74485;BMP280;62942;52.462;10.846;2023-03-17T06:11:49;100350;;;
74485;BMP280;62942;52.462;10.846;2023-03-17T06:12:59;100350;;;
74485;BMP280;62942;52.462;10.846;2023-03-17T06:13:59;100360;;;
74485;BMP280;62942;52.462;10.846;2023-03-17T06:14:59;100360;;;
74485;BMP280;62942;52.462;10.846;2023-03-17T06:16:09;100370;;;
74485;BMP280;62942;52.462;10.846;2023-03-17T06:17:09;100360;;;
74485;BMP280;62942;52.462;10.846;2023-03-17T06:18:19;100360;;;
74485;BMP280;62942;52.462;10.846;2023-03-17T06:19:19;100350;;;
74485;BMP280;62942;52.462;10.846;2023-03-17T06:20:29;100340;;;
74485;BMP280;62942;52.462;10.846;2023-03-17T06:21:29;100340;;;
74485;BMP280;62942;52.462;10.846;2023-03-17T06:22:29;100350;;;
74485;BMP280;62942;52.462;10.846;2023-03-17T06:23:29;100350;;;
74485;BMP280;62942;52.462;10.846;2023-03-17T06:24:39;100350;;;
74485;BMP280;62942;52.462;10.846;2023-03-17T06:25:49;100350;;;
74485;BMP280;62942;52.462;10.846;2023-03-17T06:26:59;100350;;;
74485;BMP280;62942;52.462;10.846;2023-03-17T06:27:59;100340;;;
74485;BMP280;62942;52.462;10.846;2023-03-17T06:29:09;100340;;;
74485;BMP280;62942;52.462;10.846;2023-03-17T06:30:09;100340;;;
74485;BMP280;62942;52.462;10.846;2023-03-17T06:31:09;100340;;;
74485;BMP280;62942;52.462;10.846;2023-03-17T06:32:09;100340;;;
74485;BMP280;62942;52.462;10.846;2023-03-17T06:33:19;100340;;;
74485;BMP280;62942;52.462;10.846;2023-03-17T06:34:29;100350;;;
74485;BMP280;62942;52.462;10.846;2023-03-17T06:35:39;100350;;;
74485;BMP280;62942;52.462;10.846;2023-03-17T06:36:49;100350;;;
74485;BMP280;62942;52.462;10.846;2023-03-17T06:37:59;100340;;;
74485;BMP280;62942;52.462;10.846;2023-03-17T06:39:09;100340;;;
74485;BMP280;62942;52.462;10.846;2023-03-17T06:40:19;100340;;;
74485;BMP280;62942;52.462;10.846;2023-03-17T06:41:19;100340;;;
74485;BMP280;62942;52.462;10.846;2023-03-17T06:42:19;100340;;;
74485;BMP280;62942;52.462;10.846;2023-03-17T06:43:29;100340;;;
74485;BMP280;62942;52.462;10.846;2023-03-17T06:44:39;100340;;;
74485;BMP280;62942;52.462;10.846;2023-03-17T06:45:39;100340;;;
74485;BMP280;62942;52.462;10.846;2023-03-17T06:46:39;100340;;;
74485;BMP280;62942;52.462;10.846;2023-03-17T06:47:49;100350;;;
74485;BMP280;62942;52.462;10.846;2023-03-17T06:48:59;100350;;;
74485;BMP280;62942;52.462;10.846;2023-03-17T06:50:09;100360;;;
74485;BMP280;62942;52.462;10.846;2023-03-17T06:51:09;100350;;;
74485;BMP280;62942;52.462;10.846;2023-03-17T06:52:09;100350;;;
74485;BMP280;62942;52.462;10.846;2023-03-17T06:53:09;100350;;;
74485;BMP280;62942;52.462;10.846;2023-03-17T06:54:19;100350;;;
74485;BMP280;62942;52.462;10.846;2023-03-17T06:55:29;100350;;;
74485;BMP280;62942;52.462;10.846;2023-03-17T06:56:39;100350;;;
74485;BMP280;62942;52.462;10.846;2023-03-17T06:57:49;100350;;;
74485;BMP280;62942;52.462;10.846;2023-03-17T06:58:59;100340;;;
74485;BMP280;62942;52.462;10.846;2023-03-17T07:00:09;100340;;;
74485;BMP280;62942;52.462;10.846;2023-03-17T07:01:09;100350;;;